createdAt,value
2018-04-07T00:01:11.852Z,5.53
2018-04-07T00:03:41.744Z,6.70
2018-04-07T00:06:10.801Z,7.37
2018-04-07T00:08:40.645Z,8.35
2018-04-07T00:11:09.774Z,14.63
2018-04-07T00:13:39.625Z,4.28
2018-04-07T00:16:08.897Z,8.70
2018-04-07T00:18:37.991Z,6.55
2018-04-07T00:21:07.817Z,10.02
2018-04-07T00:23:37.673Z,5.43
2018-04-07T00:26:06.737Z,9.80
2018-04-07T00:28:35.905Z,12.13
2018-04-07T00:31:04.981Z,6.25
2018-04-07T00:33:34.814Z,3.70
2018-04-07T00:36:03.909Z,3.70
2018-04-07T00:38:33.782Z,8.15
2018-04-07T00:41:02.846Z,5.65
2018-04-07T00:43:32.676Z,9.05
2018-04-07T00:46:01.795Z,6.70
2018-04-07T00:48:31.631Z,13.82
2018-04-07T00:51:00.742Z,10.32
2018-04-07T00:53:29.805Z,9.13
2018-04-07T00:55:58.868Z,10.00
2018-04-07T00:58:28.006Z,9.00
2018-04-07T01:00:57.317Z,10.07
2018-04-07T01:03:26.383Z,9.32
2018-04-07T01:05:56.229Z,9.45
2018-04-07T01:08:25.298Z,13.73
2018-04-07T01:10:54.393Z,13.93
2018-04-07T01:13:23.457Z,13.68
2018-04-07T01:15:52.530Z,6.65
2018-04-07T01:18:21.621Z,15.50
2018-04-07T01:20:50.967Z,8.10
2018-04-07T01:23:20.073Z,5.82
2018-04-07T01:25:49.243Z,9.93
2018-04-07T01:28:18.317Z,10.90
2018-04-07T01:30:47.462Z,14.70
2018-04-07T01:33:16.616Z,7.50
2018-04-07T01:35:45.682Z,12.55
2018-04-07T01:38:14.742Z,5.95
2018-04-07T01:40:44.573Z,9.45
2018-04-07T01:43:14.398Z,21.12
2018-04-07T01:45:44.229Z,7.80
2018-04-07T01:48:14.123Z,4.47
2018-04-07T01:50:43.214Z,9.98
2018-04-07T01:53:12.269Z,9.38
2018-04-07T01:55:42.130Z,8.73
2018-04-07T01:58:11.196Z,14.63
2018-04-07T02:00:40.271Z,11.93
2018-04-07T02:03:10.108Z,12.82
2018-04-07T02:05:39.173Z,4.62
2018-04-07T02:08:09.064Z,12.75
2018-04-07T02:10:38.125Z,13.35
2018-04-07T02:13:07.191Z,13.23
2018-04-07T02:15:36.257Z,13.05
2018-04-07T02:18:05.331Z,22.58
2018-04-07T02:20:35.165Z,6.15
2018-04-07T02:23:04.997Z,17.33
2018-04-07T02:25:34.057Z,13.00
2018-04-07T02:28:03.123Z,13.40
2018-04-07T02:30:32.990Z,20.52
2018-04-07T02:33:02.055Z,9.65
2018-04-07T02:35:31.119Z,7.60
2018-04-07T02:38:00.202Z,14.73
2018-04-07T02:40:29.266Z,8.25
2018-04-07T02:42:59.106Z,8.18
2018-04-07T02:45:28.162Z,9.20
2018-04-07T02:47:57.225Z,11.95
2018-04-07T02:50:26.324Z,6.72
2018-04-07T02:52:56.161Z,12.18
2018-04-07T02:55:25.226Z,11.55
2018-04-07T02:57:54.330Z,6.35
2018-04-07T03:00:23.389Z,15.20
2018-04-07T03:02:52.506Z,14.68
2018-04-07T03:05:21.569Z,11.93
2018-04-07T03:07:50.665Z,15.07
2018-04-07T03:10:19.730Z,8.35
2018-04-07T03:12:49.619Z,17.75
2018-04-07T03:15:18.694Z,16.70
2018-04-07T03:17:47.829Z,10.57
2018-04-07T03:20:16.938Z,7.70
2018-04-07T03:22:46.006Z,10.35
2018-04-07T03:25:15.069Z,8.82
2018-04-07T03:27:44.133Z,13.62
2018-04-07T03:30:13.195Z,16.87
2018-04-07T03:32:42.305Z,10.55
2018-04-07T03:35:11.365Z,11.80
2018-04-07T03:37:40.436Z,10.70
2018-04-07T03:40:10.271Z,10.60
2018-04-07T03:42:40.141Z,9.35
2018-04-07T03:45:09.210Z,14.85
2018-04-07T03:47:39.122Z,10.52
2018-04-07T03:50:08.195Z,12.50
2018-04-07T03:52:37.253Z,19.55
2018-04-07T03:55:07.114Z,14.55
2018-04-07T03:57:36.179Z,9.82
2018-04-07T04:00:05.309Z,12.88
2018-04-07T04:02:35.141Z,9.43
2018-04-07T04:05:04.258Z,13.30
2018-04-07T04:07:33.334Z,22.45
2018-04-07T04:10:02.406Z,12.85
2018-04-07T04:12:31.475Z,10.20
2018-04-07T04:15:01.338Z,16.35
2018-04-07T04:17:30.405Z,14.23
2018-04-07T04:20:00.242Z,14.40
2018-04-07T04:22:29.374Z,10.48
2018-04-07T04:24:58.438Z,16.98
2018-04-07T04:27:27.509Z,15.80
2018-04-07T04:29:56.582Z,18.80
2018-04-07T04:32:26.414Z,14.52
2018-04-07T04:34:56.274Z,11.48
2018-04-07T04:37:25.333Z,18.33
2018-04-07T04:39:55.374Z,18.42
2018-04-07T04:42:25.215Z,17.15
2018-04-07T04:44:54.442Z,12.98
2018-04-07T04:47:23.538Z,14.68
2018-04-07T04:49:52.599Z,11.95
2018-04-07T04:52:21.662Z,20.05
2018-04-07T04:54:50.726Z,12.90
2018-04-07T04:57:20.129Z,19.20
2018-04-07T04:59:49.242Z,14.02
2018-04-07T05:02:18.318Z,17.12
2018-04-07T05:04:47.378Z,12.30
2018-04-07T05:07:16.447Z,21.40
2018-04-07T05:09:45.514Z,11.77
2018-04-07T05:12:15.343Z,16.02
2018-04-07T05:14:45.171Z,19.17
2018-04-07T05:17:15.004Z,11.02
2018-04-07T05:19:44.127Z,10.55
2018-04-07T05:22:13.238Z,17.52
2018-04-07T05:24:43.054Z,22.15
2018-04-07T05:27:12.894Z,18.42
2018-04-07T05:29:42.109Z,22.27
2018-04-07T05:32:11.186Z,15.35
2018-04-07T05:34:40.263Z,15.80
2018-04-07T05:37:09.333Z,16.12
2018-04-07T05:39:38.402Z,11.68
2018-04-07T05:42:07.472Z,12.85
2018-04-07T05:44:36.573Z,17.50
2018-04-07T05:47:05.695Z,20.73
2018-04-07T05:49:34.762Z,16.62
2018-04-07T05:52:04.594Z,17.98
2018-04-07T05:54:34.429Z,14.20
2018-04-07T05:57:04.347Z,24.08
2018-04-07T05:59:34.192Z,15.65
2018-04-07T06:02:03.262Z,14.90
2018-04-07T06:04:32.577Z,17.70
2018-04-07T06:07:01.641Z,23.45
2018-04-07T06:09:30.711Z,19.20
2018-04-07T06:12:00.555Z,20.40
2018-04-07T06:14:30.397Z,20.00
2018-04-07T06:16:59.471Z,16.12
2018-04-07T06:19:28.538Z,13.25
2018-04-07T06:21:57.607Z,11.30
2018-04-07T06:24:27.442Z,16.08
2018-04-07T06:26:56.553Z,19.42
2018-04-07T06:29:25.625Z,15.63
2018-04-07T06:31:54.686Z,15.75
2018-04-07T06:34:23.749Z,24.73
2018-04-07T06:36:52.813Z,19.33
2018-04-07T06:39:21.896Z,19.23
2018-04-07T06:41:51.803Z,12.13
2018-04-07T06:44:20.867Z,16.73
2018-04-07T06:46:49.938Z,8.68
2018-04-07T06:49:19.764Z,16.30
2018-04-07T06:51:49.605Z,13.62
2018-04-07T06:54:18.689Z,9.23
2018-04-07T06:56:47.809Z,18.42
2018-04-07T06:59:17.634Z,14.90
2018-04-07T07:01:47.467Z,10.75
2018-04-07T07:04:17.298Z,11.82
2018-04-07T07:06:47.257Z,12.10
2018-04-07T07:09:16.357Z,15.00
2018-04-07T07:11:45.425Z,17.00
2018-04-07T07:14:14.495Z,22.00
2018-04-07T07:16:43.626Z,14.60
2018-04-07T07:19:13.457Z,9.52
2018-04-07T07:21:42.555Z,15.48
2018-04-07T07:24:11.703Z,14.80
2018-04-07T07:26:40.750Z,10.85
2018-04-07T07:29:09.814Z,7.37
2018-04-07T07:31:38.887Z,12.98
2018-04-07T07:34:07.961Z,14.73
2018-04-07T07:36:37.801Z,9.88
2018-04-07T07:39:06.870Z,19.30
2018-04-07T07:41:35.946Z,30.85
2018-04-07T07:44:05.015Z,15.52
2018-04-07T07:46:34.145Z,13.32
2018-04-07T07:49:03.472Z,12.13
2018-04-07T07:51:32.579Z,17.80
2018-04-07T07:54:01.645Z,18.58
2018-04-07T07:56:31.554Z,11.68
2018-04-07T07:59:00.626Z,15.73
2018-04-07T08:01:29.698Z,9.90
2018-04-07T08:03:59.601Z,11.12
2018-04-07T08:06:28.693Z,21.45
2018-04-07T08:08:57.818Z,11.70
2018-04-07T08:11:26.901Z,9.80
2018-04-07T08:13:55.978Z,12.40
2018-04-07T08:16:25.125Z,17.77
2018-04-07T08:18:54.289Z,14.45
2018-04-07T08:21:24.142Z,12.90
2018-04-07T08:23:53.249Z,13.00
2018-04-07T08:26:22.334Z,14.48
2018-04-07T08:28:52.178Z,10.65
2018-04-07T08:31:21.257Z,11.12
2018-04-07T08:33:50.353Z,10.50
2018-04-07T08:36:19.445Z,14.10
2018-04-07T08:38:48.535Z,7.43
2018-04-07T08:41:17.630Z,8.57
2018-04-07T08:43:46.718Z,12.02
2018-04-07T08:46:16.683Z,16.42
2018-04-07T08:48:45.819Z,11.30
2018-04-07T08:51:14.930Z,8.33
2018-04-07T08:53:44.050Z,12.10
2018-04-07T08:56:14.661Z,13.80
2018-04-07T08:58:43.840Z,10.10
2018-04-07T09:01:13.704Z,11.83
2018-04-07T09:03:42.789Z,19.43
2018-04-07T09:06:12.641Z,11.33
2018-04-07T09:08:41.761Z,13.73
2018-04-07T09:11:10.843Z,13.97
2018-04-07T09:13:39.944Z,12.47
2018-04-07T09:16:09.816Z,11.67
2018-04-07T09:18:38.902Z,11.50
2018-04-07T09:21:07.974Z,9.17
2018-04-07T09:23:37.119Z,11.40
2018-04-07T09:26:06.198Z,10.23
2018-04-07T09:28:35.273Z,15.33
2018-04-07T09:31:09.837Z,11.83
2018-04-07T09:33:38.977Z,13.37
2018-04-07T09:36:08.826Z,7.83
2018-04-07T09:38:37.909Z,11.60
2018-04-07T09:41:07.846Z,11.27
2018-04-07T09:43:37.682Z,9.43
2018-04-07T09:46:06.758Z,11.70
2018-04-07T09:48:35.841Z,9.67
2018-04-07T09:51:04.925Z,12.97
2018-04-07T09:53:34.002Z,9.30
2018-04-07T09:56:03.850Z,12.77
2018-04-07T09:58:33.045Z,12.70
2018-04-07T10:01:02.888Z,10.40
2018-04-07T10:03:32.026Z,13.13
2018-04-07T10:06:01.106Z,12.73
2018-04-07T10:08:30.254Z,13.43
2018-04-07T10:10:59.338Z,7.90
2018-04-07T10:13:28.417Z,10.63
2018-04-07T10:15:58.262Z,9.00
2018-04-07T10:18:28.100Z,12.53
2018-04-07T10:20:57.181Z,12.00
2018-04-07T10:23:26.273Z,12.17
2018-04-07T10:25:56.353Z,10.80
2018-04-07T10:28:25.497Z,9.30
2018-04-07T10:30:54.578Z,13.20
2018-04-07T10:33:23.657Z,6.60
2018-04-07T10:35:53.498Z,6.67
2018-04-07T10:38:23.875Z,8.93
2018-04-07T10:40:53.085Z,12.83
2018-04-07T10:43:22.170Z,8.43
2018-04-07T10:45:51.287Z,9.37
2018-04-07T10:48:20.425Z,13.20
2018-04-07T10:50:49.506Z,8.07
2018-04-07T10:53:18.633Z,12.17
2018-04-07T10:55:47.705Z,11.70
2018-04-07T10:58:17.553Z,7.70
2018-04-07T11:00:46.626Z,15.37
2018-04-07T11:03:15.702Z,10.50
2018-04-07T11:05:44.773Z,8.13
2018-04-07T11:08:14.658Z,10.70
2018-04-07T11:10:43.766Z,12.87
2018-04-07T11:13:12.909Z,9.20
2018-04-07T11:15:42.761Z,13.40
2018-04-07T11:18:11.833Z,8.37
2018-04-07T11:20:40.946Z,11.13
2018-04-07T11:23:10.070Z,7.73
2018-04-07T11:25:39.913Z,6.43
2018-04-07T11:28:09.754Z,15.33
2018-04-07T11:30:39.111Z,10.63
2018-04-07T11:33:08.198Z,11.50
2018-04-07T11:35:37.274Z,8.43
2018-04-07T11:38:07.174Z,7.00
2018-04-07T11:40:36.259Z,10.00
2018-04-07T11:43:05.369Z,5.93
2018-04-07T11:45:34.445Z,11.17
2018-04-07T11:48:03.519Z,10.13
2018-04-07T11:50:32.589Z,10.47
2018-04-07T11:53:01.661Z,7.33
2018-04-07T11:55:31.505Z,10.17
2018-04-07T11:58:00.582Z,5.20
2018-04-07T12:00:29.702Z,5.90
2018-04-07T12:02:59.544Z,12.77
2018-04-07T12:05:28.617Z,9.67
2018-04-07T12:07:57.690Z,8.33
2018-04-07T12:10:26.757Z,6.07
2018-04-07T12:12:56.597Z,13.40
2018-04-07T12:15:26.429Z,9.33
2018-04-07T12:17:55.506Z,11.30
2018-04-07T12:20:25.349Z,10.47
2018-04-07T12:22:55.237Z,9.53
2018-04-07T12:25:24.301Z,4.50
2018-04-07T12:27:54.147Z,9.97
2018-04-07T12:30:23.250Z,9.10
2018-04-07T12:32:52.349Z,9.33
2018-04-07T12:35:22.188Z,5.50
2018-04-07T12:37:51.418Z,4.67
2018-04-07T12:40:20.523Z,6.50
2018-04-07T12:42:49.647Z,8.43
2018-04-07T12:45:18.721Z,7.70
2018-04-07T12:47:48.564Z,8.43
2018-04-07T12:50:17.697Z,9.10
2018-04-07T12:52:46.769Z,8.20
2018-04-07T12:55:16.671Z,12.00
2018-04-07T12:57:45.749Z,14.57
2018-04-07T13:00:14.877Z,6.60
2018-04-07T13:02:43.954Z,18.47
2018-04-07T13:05:13.062Z,5.30
2018-04-07T13:07:42.129Z,6.97
2018-04-07T13:10:11.224Z,6.90
2018-04-07T13:12:40.380Z,10.03
2018-04-07T13:15:09.674Z,6.50
2018-04-07T13:17:39.546Z,4.73
2018-04-07T13:20:08.661Z,6.60
2018-04-07T13:22:37.733Z,5.87
2018-04-07T13:25:07.626Z,10.73
2018-04-07T13:27:36.765Z,5.40
2018-04-07T13:30:06.614Z,8.00
2018-04-07T13:32:35.681Z,3.90
2018-04-07T13:35:04.774Z,5.13
2018-04-07T13:37:33.885Z,7.13
2018-04-07T13:40:02.965Z,5.43
2018-04-07T13:42:32.042Z,5.77
2018-04-07T13:45:01.947Z,13.67
2018-04-07T13:47:31.079Z,7.87
2018-04-07T13:50:00.913Z,6.63
2018-04-07T13:52:30.806Z,7.53
2018-04-07T13:54:59.926Z,4.17
2018-04-07T13:57:28.997Z,6.43
2018-04-07T13:59:58.098Z,3.87
2018-04-07T14:02:27.171Z,4.70
2018-04-07T14:04:56.302Z,4.80
2018-04-07T14:07:26.143Z,7.00
2018-04-07T14:09:55.270Z,6.67
2018-04-07T14:12:24.353Z,3.53
2018-04-07T14:14:53.421Z,8.03
2018-04-07T14:17:22.549Z,6.33
2018-04-07T14:19:51.641Z,3.80
2018-04-07T14:22:20.796Z,5.83
2018-04-07T14:24:49.862Z,3.23
2018-04-07T14:27:18.929Z,4.73
2018-04-07T14:29:48.112Z,5.70
2018-04-07T14:32:17.963Z,4.17
2018-04-07T14:34:47.038Z,7.70
2018-04-07T14:37:16.106Z,4.23
2018-04-07T14:39:45.181Z,6.73
2018-04-07T14:42:15.072Z,8.40
2018-04-07T14:44:44.236Z,4.77
2018-04-07T14:47:13.309Z,3.40
2018-04-07T14:49:42.467Z,5.50
2018-04-07T14:52:11.546Z,63.10
2018-04-07T14:54:41.381Z,8.70
2018-04-07T14:57:11.208Z,7.60
2018-04-07T14:59:41.197Z,35.17
2018-04-07T15:02:10.281Z,5.60
2018-04-07T15:04:39.354Z,5.47
2018-04-07T15:07:09.186Z,5.00
2018-04-07T15:09:39.072Z,11.73
2018-04-07T15:12:08.159Z,17.20
2018-04-07T15:14:37.233Z,9.67
2018-04-07T15:17:07.069Z,6.93
2018-04-07T15:19:36.137Z,7.63
2018-04-07T15:22:05.267Z,9.17
2018-04-07T15:24:35.102Z,11.90
2018-04-07T15:27:04.993Z,8.93
2018-04-07T15:29:34.066Z,7.73
2018-04-07T15:32:03.139Z,5.70
2018-04-07T15:34:32.978Z,5.43
2018-04-07T15:37:02.913Z,5.00
2018-04-07T15:39:32.746Z,4.80
2018-04-07T15:42:01.821Z,11.83
2018-04-07T15:44:30.926Z,9.07
2018-04-07T15:47:00.005Z,5.13
2018-04-07T15:49:29.108Z,6.00
2018-04-07T15:51:58.178Z,7.23
2018-04-07T15:54:28.014Z,8.67
2018-04-07T15:56:57.887Z,16.37
2018-04-07T15:59:26.961Z,14.13
2018-04-07T16:01:56.076Z,16.70
2018-04-07T16:04:25.157Z,12.43
2018-04-07T16:06:54.237Z,20.00
2018-04-07T16:09:23.322Z,11.87
2018-04-07T16:11:52.401Z,5.83
2018-04-07T16:14:22.240Z,10.30
2018-04-07T16:16:51.356Z,11.47
2018-04-07T16:19:20.421Z,8.53
2018-04-07T16:21:49.494Z,6.97
2018-04-07T16:24:18.571Z,10.33
2018-04-07T16:26:48.406Z,6.87
2018-04-07T16:29:18.290Z,5.70
2018-04-07T16:31:47.365Z,3.90
2018-04-07T16:34:16.443Z,8.07
2018-04-07T16:36:46.278Z,7.50
2018-04-07T16:39:16.131Z,9.47
2018-04-07T16:41:45.253Z,4.60
2018-04-07T16:44:14.321Z,5.20
2018-04-07T16:46:43.415Z,10.63
2018-04-07T16:49:13.289Z,13.23
2018-04-07T16:51:42.362Z,6.47
2018-04-07T16:54:12.201Z,12.60
2018-04-07T16:56:42.038Z,11.90
2018-04-07T16:59:11.117Z,16.80
2018-04-07T17:01:40.267Z,12.47
2018-04-07T17:04:09.351Z,16.10
2018-04-07T17:06:39.195Z,7.67
2018-04-07T17:09:08.292Z,11.00
2018-04-07T17:11:38.134Z,28.40
2018-04-07T17:14:07.211Z,17.87
2018-04-07T17:16:36.289Z,14.50
2018-04-07T17:19:05.423Z,15.80
2018-04-07T17:21:34.510Z,9.07
2018-04-07T17:24:03.689Z,29.00
2018-04-07T17:26:32.774Z,11.77
2018-04-07T17:29:02.613Z,39.60
2018-04-07T17:31:31.721Z,99.10
2018-04-07T17:34:01.570Z,130.27
2018-04-07T17:36:30.717Z,25.70
2018-04-07T17:38:59.799Z,16.53
2018-04-07T17:41:28.878Z,15.93
2018-04-07T17:43:58.718Z,12.83
2018-04-07T17:46:27.829Z,18.43
2018-04-07T17:49:05.991Z,19.97
2018-04-07T17:51:26.021Z,14.47
2018-04-07T17:53:55.125Z,17.20
2018-04-07T17:56:24.217Z,14.50
2018-04-07T17:58:53.365Z,16.93
2018-04-07T18:01:23.202Z,15.47
2018-04-07T18:03:53.134Z,15.60
2018-04-07T18:06:22.218Z,16.47
2018-04-07T18:08:51.309Z,20.43
2018-04-07T18:11:20.387Z,14.90
2018-04-07T18:13:49.457Z,16.73
2018-04-07T18:16:19.326Z,21.47
2018-04-07T18:18:48.742Z,23.43
2018-04-07T18:21:18.417Z,20.50
2018-04-07T18:23:48.272Z,20.40
2018-04-07T18:26:17.370Z,20.73
2018-04-07T18:28:47.243Z,20.20
2018-04-07T18:31:16.338Z,20.00
2018-04-07T18:33:45.454Z,20.07
2018-04-07T18:36:14.615Z,21.37
2018-04-07T18:38:44.476Z,34.93
2018-04-07T18:41:13.561Z,34.00
2018-04-07T18:43:43.405Z,34.10
2018-04-07T18:46:12.494Z,41.23
2018-04-07T18:48:42.346Z,32.20
2018-04-07T18:51:11.501Z,24.83
2018-04-07T18:53:40.590Z,31.23
2018-04-07T18:56:09.681Z,24.53
2018-04-07T18:58:38.770Z,19.13
2018-04-07T19:01:08.654Z,21.53
2018-04-07T19:03:37.738Z,19.15
2018-04-07T19:06:06.918Z,21.27
2018-04-07T19:08:36.769Z,20.43
2018-04-07T19:11:05.853Z,17.73
2018-04-07T19:13:34.946Z,18.63
2018-04-07T19:16:04.029Z,21.93
2018-04-07T19:18:33.117Z,21.57
2018-04-07T19:21:02.238Z,24.60
2018-04-07T19:23:31.393Z,26.03
2018-04-07T19:26:00.514Z,27.13
2018-04-07T19:28:30.362Z,31.20
2018-04-07T19:30:59.449Z,32.03
2018-04-07T19:33:29.298Z,24.47
2018-04-07T19:35:58.419Z,21.53
2018-04-07T19:38:28.261Z,24.70
2018-04-07T19:40:57.341Z,28.00
2018-04-07T19:43:26.423Z,21.00
2018-04-07T19:45:55.533Z,23.43
2018-04-07T19:48:24.675Z,19.17
2018-04-07T19:50:55.230Z,27.10
2018-04-07T19:53:24.316Z,23.23
2018-04-07T19:55:54.169Z,20.30
2018-04-07T19:58:23.533Z,18.60
2018-04-07T20:00:52.613Z,25.07
2018-04-07T20:03:21.751Z,21.67
2018-04-07T20:05:50.839Z,22.53
2018-04-07T20:08:20.746Z,20.87
2018-04-07T20:10:49.830Z,24.30
2018-04-07T20:13:19.685Z,22.80
2018-04-07T20:15:48.818Z,24.30
2018-04-07T20:18:17.908Z,21.70
2018-04-07T20:20:46.989Z,26.60
2018-04-07T20:23:16.846Z,28.50
2018-04-07T20:25:45.962Z,28.83
2018-04-07T20:28:15.058Z,25.03
2018-04-07T20:30:44.209Z,26.63
2018-04-07T20:33:13.293Z,26.17
2018-04-07T20:35:42.442Z,32.03
2018-04-07T20:38:11.530Z,25.27
2018-04-07T20:40:40.671Z,19.80
2018-04-07T20:43:14.665Z,32.60
2018-04-07T20:45:43.823Z,24.73
2018-04-07T20:48:13.825Z,30.20
2018-04-07T20:50:42.914Z,30.67
2018-04-07T20:53:12.065Z,28.53
2018-04-07T20:55:41.149Z,23.30
2018-04-07T20:58:10.233Z,26.63
2018-04-07T21:00:39.314Z,28.87
2018-04-07T21:03:09.170Z,36.83
2018-04-07T21:05:38.264Z,29.23
2018-04-07T21:08:08.146Z,20.87
2018-04-07T21:10:37.261Z,25.60
2018-04-07T21:13:06.473Z,34.70
2018-04-07T21:15:35.822Z,27.60
2018-04-07T21:18:05.675Z,22.87
2018-04-07T21:20:34.902Z,22.10
2018-04-07T21:23:04.021Z,29.70
2018-04-07T21:25:33.106Z,31.87
2018-04-07T21:28:02.262Z,24.50
2018-04-07T21:30:31.349Z,22.73
2018-04-07T21:33:00.434Z,23.80
2018-04-07T21:35:29.560Z,27.93
2018-04-07T21:37:58.629Z,28.33
2018-04-07T21:40:28.516Z,19.90
2018-04-07T21:42:57.597Z,20.73
2018-04-07T21:45:26.681Z,22.63
2018-04-07T21:47:56.581Z,23.43
2018-04-07T21:50:25.673Z,24.10
2018-04-07T21:52:54.765Z,31.33
2018-04-07T21:55:23.890Z,28.37
2018-04-07T21:57:52.978Z,26.00
2018-04-07T22:00:22.137Z,27.50
2018-04-07T22:02:51.225Z,25.30
2018-04-07T22:05:20.305Z,24.20
2018-04-07T22:07:49.429Z,27.27
2018-04-07T22:10:18.523Z,22.43
2018-04-07T22:12:47.732Z,22.77
2018-04-07T22:15:16.859Z,22.83
2018-04-07T22:17:45.945Z,23.57
2018-04-07T22:20:15.909Z,23.07
2018-04-07T22:22:45.000Z,26.60
2018-04-07T22:25:14.142Z,26.87
2018-04-07T22:27:43.230Z,27.10
2018-04-07T22:30:12.369Z,24.37
2018-04-07T22:32:41.433Z,22.58
2018-04-07T22:35:10.576Z,22.73
2018-04-07T22:37:39.657Z,22.20
2018-04-07T22:40:08.751Z,25.97
2018-04-07T22:42:38.642Z,21.50
2018-04-07T22:45:07.734Z,23.30
2018-04-07T22:47:36.817Z,23.30
2018-04-07T22:50:06.062Z,20.47
2018-04-07T22:52:35.154Z,20.10
2018-04-07T22:55:04.247Z,20.67
2018-04-07T22:57:33.339Z,23.20
2018-04-07T23:00:03.530Z,21.37
2018-04-07T23:02:32.623Z,23.45
2018-04-07T23:05:01.717Z,20.73
2018-04-07T23:07:30.853Z,25.47
2018-04-07T23:09:59.994Z,24.50
2018-04-07T23:12:29.093Z,29.08
2018-04-07T23:14:58.182Z,32.65
2018-04-07T23:17:27.300Z,29.90
2018-04-07T23:19:56.405Z,27.17
2018-04-07T23:22:25.594Z,21.50
2018-04-07T23:24:54.686Z,22.35
2018-04-07T23:27:24.545Z,19.27
2018-04-07T23:29:53.642Z,22.05
2018-04-07T23:32:22.734Z,19.87
2018-04-07T23:34:52.633Z,20.05
2018-04-07T23:37:21.730Z,19.90
2018-04-07T23:39:50.821Z,15.85
2018-04-07T23:42:19.913Z,18.67
2018-04-07T23:44:49.010Z,16.07
2018-04-07T23:47:18.890Z,15.45
2018-04-07T23:49:47.985Z,18.62
2018-04-07T23:52:17.102Z,17.50
2018-04-07T23:54:46.241Z,17.37
2018-04-07T23:57:15.630Z,13.25
2018-04-07T23:59:44.709Z,15.20
